This is the latest recevied weather packets stored in our database for station/object IZ5RIE-13. If no packets are shown the sender has not sent any weather packets the latest 10 day(s).
| Time | Temp. | Humidity | Pressure | Rain* | Wind** | Luminosity | Snow |
|---|---|---|---|---|---|---|---|
| 1788367127 | 35° C | 73% | 1018.9 hPa | - | - | - | - |
| 1788366227 | 35° C | 68% | 1018.9 hPa | - | - | - | - |
| 1788365326 | 35.56° C | 69% | 1018.8 hPa | - | - | - | - |
| 1788364426 | 31.11° C | 100% | 1018.7 hPa | - | - | - | - |
| 1788363526 | 32.78° C | 97% | 1018.9 hPa | - | - | - | - |
| 1788362626 | 35° C | 73% | 1019.1 hPa | - | - | - | - |
| 1788361726 | 34.44° C | 81% | 1019.3 hPa | - | - | - | - |
| 1788360826 | 34.44° C | 78% | 1019.1 hPa | - | - | - | - |
| 1788359924 | 35° C | 84% | 1019.3 hPa | - | - | - | - |
| 1788359024 | 34.44° C | 86% | 1019.3 hPa | - | - | - | - |
| 1788358124 | 34.44° C | 83% | 1019.5 hPa | - | - | - | - |
| 1788357230 | 33.89° C | 89% | 1019.5 hPa | - | - | - | - |
| 1788356330 | 31.67° C | 100% | 1019.7 hPa | - | - | - | - |
| 1788355430 | 31.11° C | 100% | 1019.7 hPa | - | - | - | - |
| 1788354529 | 32.22° C | 100% | 1019.6 hPa | - | - | - | - |
| 1788353629 | 33.89° C | 94% | 1020 hPa | - | - | - | - |
| 1788352729 | 33.89° C | 92% | 1020.1 hPa | - | - | - | - |
| 1788351829 | 34.44° C | 88% | 1020.3 hPa | - | - | - | - |
| 1788350929 | 34.44° C | 91% | 1020.3 hPa | - | - | - | - |
| 1788350029 | 33.33° C | 100% | 1020.3 hPa | - | - | - | - |
| 1788349129 | 33.33° C | 100% | 1020.5 hPa | - | - | - | - |
| 1788348228 | 33.89° C | 100% | 1020.5 hPa | - | - | - | - |
| 1788347328 | 32.22° C | 100% | 1020.6 hPa | - | - | - | - |
| 1788346428 | 32.22° C | 100% | 1020.8 hPa | - | - | - | - |
| 1788345528 | 32.78° C | 100% | 1020.9 hPa | - | - | - | - |
* Rain since midnight (hover to see other rain measurements)
** Current wind speed in m/s (hover to see current wind gust speed)